Flight Track Log - Related Links

Times and Time Zones

All times are in EDT time to prevent confusion due to time zone crossing. See the DAL1438 flight status page for this flight to view local times or setup timezone preferences in your user account.

Time Position Orientation Groundspeed Altitude Reporting Facility
EDT Latitude Longitude Course Direction KTS MPH feet Rate Location/Type
Wed 09:58:58 PM 33.6333 -84.4667 53° Northeast 154 177 2,400  Level Atlanta TRACON
Wed 09:59:58 PM 33.6167 -84.5333 253° West 249 287 5,500 3,030 Climbing Atlanta TRACON
Wed 10:00:39 PM 33.5906 -84.5775 235° Southwest 343 395 7,500 2,614 Climbing Atlanta Center
Wed 10:01:00 PM 33.7363 -84.0007 54° Northeast  Level FlightAware Approximate
Wed 10:01:39 PM 33.5111 -84.5894 187° South 309 356 9,900  Level Atlanta Center
Wed 10:02:00 PM 33.8072 -83.8826 54° Northeast  Level FlightAware Approximate
Wed 10:02:39 PM 33.4489 -84.5367 145° Southeast 278 320 10,300  Level Atlanta Center
Wed 10:03:00 PM 33.8797 -83.7660 48° Northeast  Level FlightAware Approximate
Wed 10:03:39 PM 33.4533 -84.4172 87° East 326 375 11,900  Level Atlanta Center
Wed 10:04:00 PM 33.9563 -83.6531 53° Northeast  Level FlightAware Approximate
Wed 10:04:39 PM 33.4683 -84.2853 82° East 371 427 14,600  Level Atlanta Center
Wed 10:05:39 PM 33.5583 -84.2058 36° Northeast 383 441 17,400 2,550 Climbing Atlanta Center
Wed 10:06:39 PM 33.6628 -84.1386 28° Northeast 406 467 19,700 2,450 Climbing Atlanta Center
Wed 10:07:39 PM 33.7547 -84.0464 40° Northeast 427 491 22,300 2,050 Climbing Atlanta Center
Wed 10:08:39 PM 33.8233 -83.9139 58° Northeast 445 512 23,800 2,150 Climbing Atlanta Center
Wed 10:09:39 PM 33.8961 -83.7736 58° Northeast 456 525 26,600 2,350 Climbing Atlanta Center
Wed 10:10:39 PM 33.9689 -83.6481 55° Northeast 456 525 28,500 1,500 Climbing Atlanta Center
Wed 10:11:39 PM 34.0478 -83.5222 53° Northeast 462 532 29,600 1,400 Climbing Atlanta Center
Wed 10:12:39 PM 34.1264 -83.3939 53° Northeast 467 537 31,300 1,700 Climbing Atlanta Center
Wed 10:13:39 PM 34.2050 -83.2678 53° Northeast 472 543 33,000 850 Climbing Atlanta Center
Wed 10:14:39 PM 34.2856 -83.1411 52° Northeast 472 543 33,000  Level Atlanta Center
Wed 10:15:39 PM 34.3639 -83.0172 53° Northeast 462 532 33,000  Level Atlanta Center
Wed 10:16:39 PM 34.4422 -82.8903 53° Northeast 462 532 33,000  Level Atlanta Center
Wed 10:17:39 PM 34.5181 -82.7656 54° Northeast 462 532 33,000  Level Atlanta Center
Wed 10:18:39 PM 34.5939 -82.6383 54° Northeast 467 537 33,000  Level Atlanta Center
Wed 10:19:39 PM 34.6678 -82.5286 51° Northeast 461 531 33,000  Level Atlanta Center
Wed 10:20:39 PM 34.7456 -82.4008 53° Northeast 461 531 33,000  Level Atlanta Center
Wed 10:21:39 PM 34.8231 -82.2753 53° Northeast 466 536 33,000  Level Atlanta Center
Wed 10:22:39 PM 34.9025 -82.1494 52° Northeast 466 536 33,000  Level Atlanta Center
Wed 10:23:39 PM 34.9836 -82.0081 55° Northeast 466 536 33,000  Level Atlanta Center
Wed 10:24:39 PM 35.0586 -81.8794 55° Northeast 466 536 33,000  Level Atlanta Center
Wed 10:25:39 PM 35.1294 -81.7456 57° Northeast 466 536 33,000  Level Atlanta Center
Wed 10:26:39 PM 35.1997 -81.6114 57° Northeast 461 531 33,000  Level Atlanta Center
Wed 10:27:39 PM 35.2722 -81.4794 56° Northeast 466 536 33,000  Level Atlanta Center
Wed 10:28:39 PM 35.3383 -81.3478 58° Northeast 466 536 33,000  Level Atlanta Center
Wed 10:29:39 PM 35.4081 -81.2103 58° Northeast 466 536 33,000  Level Atlanta Center
Wed 10:30:39 PM 35.4781 -81.0728 58° Northeast 461 531 33,000  Level Atlanta Center
Wed 10:31:39 PM 35.5475 -80.9375 58° Northeast 466 536 33,000  Level Atlanta Center
Wed 10:32:39 PM 35.6133 -80.8175 56° Northeast 466 536 33,000  Level Atlanta Center
Wed 10:33:39 PM 35.6808 -80.6844 58° Northeast 466 536 33,000  Level Atlanta Center
Wed 10:34:39 PM 35.7500 -80.5511 57° Northeast 460 529 33,000  Level Atlanta Center
Wed 10:35:39 PM 35.8172 -80.4178 58° Northeast 460 529 33,000  Level Atlanta Center
Wed 10:37:51 PM 35.9747 -80.1094 58° Northeast 473 544 33,000  Level Washington Center
Wed 10:38:52 PM 36.0375 -79.9947 56° Northeast 459 528 33,000  Level Washington Center
Wed 10:39:50 PM 36.1111 -79.8600 56° Northeast 459 528 33,000 -202 Level Washington Center
Wed 10:40:51 PM 36.1936 -79.7125 55° Northeast 464 534 32,600 -836 Descending Washington Center
Wed 10:41:52 PM 36.2669 -79.5825 55° Northeast 470 541 31,300 -1,160 Descending Washington Center
Wed 10:42:50 PM 36.3522 -79.4606 49° Northeast 476 548 30,300 -843 Descending Washington Center
Wed 10:43:53 PM 36.4514 -79.3622 39° Northeast 459 528 29,600 -750 Descending Washington Center
Wed 10:44:50 PM 36.5481 -79.2736 36° Northeast 469 540 28,800 -821 Descending Washington Center
Wed 10:45:50 PM 36.6633 -79.1911 30° Northeast 469 540 28,000 -744 Descending Washington Center
Wed 10:46:51 PM 36.7583 -79.0814 43° Northeast 469 540 27,300 -829 Descending Washington Center
Wed 10:47:53 PM 36.8275 -78.9186 62° Northeast 470 541 26,300 -908 Descending Washington Center
Wed 10:48:50 PM 36.8900 -78.7731 62° Northeast 475 547 25,500 -661 Descending Washington Center
Wed 10:49:51 PM 36.9522 -78.6303 61° Northeast 469 540 25,000 -248 Descending Washington Center
Wed 10:50:51 PM 37.0119 -78.4869 62° Northeast 464 534 25,000  Level Washington Center
Wed 10:51:51 PM 37.0775 -78.3644 56° Northeast 465 535 25,000 -98 Level Washington Center
Wed 10:52:53 PM 37.1717 -78.2636 40° Northeast 451 519 24,800 -496 Descending Washington Center
Wed 10:53:52 PM 37.2697 -78.1678 38° Northeast 439 505 24,000 -923 Descending Washington Center
Wed 10:54:50 PM 37.3633 -78.0769 38° Northeast 433 498 23,000 -763 Descending Washington Center
Wed 10:55:50 PM 37.4589 -77.9858 37° Northeast 427 491 22,500 -393 Descending Washington Center
Wed 10:56:52 PM 37.5483 -77.8969 38° Northeast 422 486 22,200 -694 Descending Washington Center
Wed 10:57:51 PM 37.6397 -77.8053 38° Northeast 417 480 21,100 -1,050 Descending Washington Center
Wed 10:58:52 PM 37.7269 -77.7186 38° Northeast 411 473 20,100 -1,041 Descending Washington Center
Wed 10:59:52 PM 37.8139 -77.6342 37° Northeast 401 461 19,000 -1,119 Descending Washington Center
Wed 11:00:50 PM 37.9008 -77.5497 37° Northeast 396 456 17,900 -1,311 Descending Washington Center
Wed 11:01:51 PM 37.9856 -77.4650 38° Northeast 396 456 16,400 -1,820 Descending Washington Center
Wed 11:02:52 PM 38.0767 -77.3750 38° Northeast 396 456 14,200 -2,067 Descending Washington Center
Wed 11:03:50 PM 38.1592 -77.2925 38° Northeast 385 443 12,300 -1,966 Descending Washington Center
Wed 11:04:51 PM 38.2353 -77.2175 38° Northeast 363 418 10,300 -1,574 Descending Washington Center
Wed 11:05:52 PM 38.3111 -77.1531 34° Northeast 341 392 9,100 -1,412 Descending Washington Center
Wed 11:06:50 PM 38.3908 -77.1256 15° North 301 346 7,500 -1,627 Descending Washington Center
Wed 11:07:50 PM 38.4683 -77.0978 16° North 290 334 5,900 -1,438 Descending Washington Center
Wed 11:08:51 PM 38.5414 -77.0728 15° North 280 322 4,600 -934 Descending Washington Center
Wed 11:09:52 PM 38.6106 -77.0478 16° North 270 311 4,000 -1,059 Descending Washington Center
Wed 11:10:50 PM 38.6775 -77.0250 15° North 257 296 2,500 -945 Descending Washington Center
Wed 11:11:59 PM 38.7500 -77.0333 355° North 185 213 2,000 -651 Descending Potomac TRACON
Wed 11:12:59 PM 38.7833 -77.0333 360° North 162 186 1,100 -900 Descending Potomac TRACON

Login

Don't have an account? Register now (free) for customized features, flight alerts, and more!